KTBR/TBR METAR and TAF weather

Enter ICAO airport designator
Station Type Date Time Source
KTBR METAR 2019/04/26 03:35 UTC NOAA

KTBR 260335Z AUTO 19006KT 10SM SCT050 SCT080 22/15 A2991 RMK AO2 T02150151


Station Type Date Time Source
KTBR Decoded METAR 2019/04/26 03:35 UTC NOAA

Statesboro, Statesboro-Bulloch County Airport, GA, United States (KTBR) 32-28-59N 081-44-14W
Apr 25, 2019 - 11:35 PM EDT / 2019.04.26 0335 UTC
Wind: from the S (190 degrees) at 7 MPH (6 KT):0
Visibility: 10 mile(s):0
Sky conditions: partly cloudy
Temperature: 70.7 F (21.5 C)
Dew Point: 59.2 F (15.1 C)
Relative Humidity: 66%
Pressure (altimeter): 29.91 in. Hg (1012 hPa)
ob: KTBR 260335Z AUTO 19006KT 10SM SCT050 SCT080 22/15 A2991 RMK AO2 T02150151
cycle: 3

Station Type Date Time Source
KTBR TAF UTC NOAA

Error!

Example: see airport list